sensor_id;sensor_type;location;lat;lon;timestamp;temperature;humidity
35635;DHT22;21757;43.610;1.440;2023-09-07T00:01:44;22.40;99.90
35635;DHT22;21757;43.610;1.440;2023-09-07T00:04:09;22.30;99.90
35635;DHT22;21757;43.610;1.440;2023-09-07T00:06:36;22.30;99.90
35635;DHT22;21757;43.610;1.440;2023-09-07T00:09:02;22.30;99.90
35635;DHT22;21757;43.610;1.440;2023-09-07T00:11:29;22.30;99.90
35635;DHT22;21757;43.610;1.440;2023-09-07T00:13:55;22.20;99.90
35635;DHT22;21757;43.610;1.440;2023-09-07T00:16:20;22.10;99.90
35635;DHT22;21757;43.610;1.440;2023-09-07T00:18:46;22.10;99.90
35635;DHT22;21757;43.610;1.440;2023-09-07T00:21:12;22.10;99.90
35635;DHT22;21757;43.610;1.440;2023-09-07T00:23:39;22.00;99.90
35635;DHT22;21757;43.610;1.440;2023-09-07T00:26:05;22.00;99.90
35635;DHT22;21757;43.610;1.440;2023-09-07T00:28:30;22.10;99.90
35635;DHT22;21757;43.610;1.440;2023-09-07T00:30:56;22.10;99.90
35635;DHT22;21757;43.610;1.440;2023-09-07T00:33:22;22.10;99.90
35635;DHT22;21757;43.610;1.440;2023-09-07T00:35:47;22.00;99.90
35635;DHT22;21757;43.610;1.440;2023-09-07T00:38:13;22.00;99.90
35635;DHT22;21757;43.610;1.440;2023-09-07T00:40:42;22.00;99.90
35635;DHT22;21757;43.610;1.440;2023-09-07T00:43:09;22.00;99.90
35635;DHT22;21757;43.610;1.440;2023-09-07T00:45:35;21.90;99.90
35635;DHT22;21757;43.610;1.440;2023-09-07T00:48:00;21.90;99.90
35635;DHT22;21757;43.610;1.440;2023-09-07T00:50:26;21.90;99.90
35635;DHT22;21757;43.610;1.440;2023-09-07T00:53:05;21.80;99.90
35635;DHT22;21757;43.610;1.440;2023-09-07T00:55:33;21.70;99.90
35635;DHT22;21757;43.610;1.440;2023-09-07T00:58:00;21.70;99.90
35635;DHT22;21757;43.610;1.440;2023-09-07T01:00:26;21.70;99.90
35635;DHT22;21757;43.610;1.440;2023-09-07T01:02:52;21.80;99.90
35635;DHT22;21757;43.610;1.440;2023-09-07T01:05:20;21.80;99.90
35635;DHT22;21757;43.610;1.440;2023-09-07T01:07:49;21.90;99.90
35635;DHT22;21757;43.610;1.440;2023-09-07T01:10:19;21.90;99.90
35635;DHT22;21757;43.610;1.440;2023-09-07T01:12:46;21.70;99.90
35635;DHT22;21757;43.610;1.440;2023-09-07T01:15:11;21.70;99.90
35635;DHT22;21757;43.610;1.440;2023-09-07T01:17:37;21.70;99.90
35635;DHT22;21757;43.610;1.440;2023-09-07T01:20:04;21.70;99.90
35635;DHT22;21757;43.610;1.440;2023-09-07T01:22:37;21.60;99.90
35635;DHT22;21757;43.610;1.440;2023-09-07T01:25:05;21.60;99.90
35635;DHT22;21757;43.610;1.440;2023-09-07T01:27:32;21.50;99.90
35635;DHT22;21757;43.610;1.440;2023-09-07T01:29:58;21.50;99.90
35635;DHT22;21757;43.610;1.440;2023-09-07T01:32:24;21.50;99.90
35635;DHT22;21757;43.610;1.440;2023-09-07T01:34:54;21.60;99.90
35635;DHT22;21757;43.610;1.440;2023-09-07T01:37:21;21.50;99.90
35635;DHT22;21757;43.610;1.440;2023-09-07T01:39:47;21.50;99.90
35635;DHT22;21757;43.610;1.440;2023-09-07T01:42:14;21.60;99.90
35635;DHT22;21757;43.610;1.440;2023-09-07T01:44:39;21.50;99.90
35635;DHT22;21757;43.610;1.440;2023-09-07T01:47:05;21.60;99.90
35635;DHT22;21757;43.610;1.440;2023-09-07T01:49:30;21.60;99.90
35635;DHT22;21757;43.610;1.440;2023-09-07T01:51:56;21.50;99.90
35635;DHT22;21757;43.610;1.440;2023-09-07T01:54:22;21.50;99.90
35635;DHT22;21757;43.610;1.440;2023-09-07T01:56:47;21.50;99.90
35635;DHT22;21757;43.610;1.440;2023-09-07T01:59:13;21.40;99.90
35635;DHT22;21757;43.610;1.440;2023-09-07T02:01:39;21.50;99.90
35635;DHT22;21757;43.610;1.440;2023-09-07T02:04:05;21.50;99.90
35635;DHT22;21757;43.610;1.440;2023-09-07T02:06:31;21.40;99.90
35635;DHT22;21757;43.610;1.440;2023-09-07T02:08:57;21.40;99.90
35635;DHT22;21757;43.610;1.440;2023-09-07T02:11:23;21.40;99.90
35635;DHT22;21757;43.610;1.440;2023-09-07T02:13:48;21.30;99.90
35635;DHT22;21757;43.610;1.440;2023-09-07T02:16:14;21.30;99.90
35635;DHT22;21757;43.610;1.440;2023-09-07T02:18:40;21.40;99.90
35635;DHT22;21757;43.610;1.440;2023-09-07T02:21:09;21.40;99.90
35635;DHT22;21757;43.610;1.440;2023-09-07T02:23:35;21.30;99.90
35635;DHT22;21757;43.610;1.440;2023-09-07T02:26:04;21.30;99.90
35635;DHT22;21757;43.610;1.440;2023-09-07T02:28:30;21.30;99.90
35635;DHT22;21757;43.610;1.440;2023-09-07T02:31:03;21.40;99.90
35635;DHT22;21757;43.610;1.440;2023-09-07T02:33:29;21.40;99.90
35635;DHT22;21757;43.610;1.440;2023-09-07T02:35:54;21.40;99.90
35635;DHT22;21757;43.610;1.440;2023-09-07T02:38:20;21.40;99.90
35635;DHT22;21757;43.610;1.440;2023-09-07T02:40:46;21.30;99.90
35635;DHT22;21757;43.610;1.440;2023-09-07T02:43:11;21.20;99.90
35635;DHT22;21757;43.610;1.440;2023-09-07T02:45:38;21.20;99.90
35635;DHT22;21757;43.610;1.440;2023-09-07T02:48:04;21.10;99.90
35635;DHT22;21757;43.610;1.440;2023-09-07T02:50:33;21.10;99.90
35635;DHT22;21757;43.610;1.440;2023-09-07T02:52:59;21.10;99.90
35635;DHT22;21757;43.610;1.440;2023-09-07T02:55:26;21.10;99.90
35635;DHT22;21757;43.610;1.440;2023-09-07T02:57:52;21.10;99.90
35635;DHT22;21757;43.610;1.440;2023-09-07T03:00:17;21.10;99.90
35635;DHT22;21757;43.610;1.440;2023-09-07T03:02:44;21.10;99.90
35635;DHT22;21757;43.610;1.440;2023-09-07T03:05:10;21.10;99.90
35635;DHT22;21757;43.610;1.440;2023-09-07T03:07:35;21.10;99.90
35635;DHT22;21757;43.610;1.440;2023-09-07T03:10:01;21.10;99.90
35635;DHT22;21757;43.610;1.440;2023-09-07T03:12:28;21.10;99.90
35635;DHT22;21757;43.610;1.440;2023-09-07T03:14:53;21.10;99.90
35635;DHT22;21757;43.610;1.440;2023-09-07T03:17:19;21.10;99.90
35635;DHT22;21757;43.610;1.440;2023-09-07T03:19:46;21.10;99.90
35635;DHT22;21757;43.610;1.440;2023-09-07T03:22:13;21.10;99.90
35635;DHT22;21757;43.610;1.440;2023-09-07T03:24:39;21.00;99.90
35635;DHT22;21757;43.610;1.440;2023-09-07T03:27:05;21.00;99.90
35635;DHT22;21757;43.610;1.440;2023-09-07T03:29:34;21.10;99.90
35635;DHT22;21757;43.610;1.440;2023-09-07T03:32:01;21.10;99.90
35635;DHT22;21757;43.610;1.440;2023-09-07T03:34:26;21.00;99.90
35635;DHT22;21757;43.610;1.440;2023-09-07T03:36:52;21.00;99.90
35635;DHT22;21757;43.610;1.440;2023-09-07T03:39:18;21.00;99.90
35635;DHT22;21757;43.610;1.440;2023-09-07T03:41:49;21.00;99.90
35635;DHT22;21757;43.610;1.440;2023-09-07T03:44:15;21.00;99.90
35635;DHT22;21757;43.610;1.440;2023-09-07T03:46:41;21.00;99.90
35635;DHT22;21757;43.610;1.440;2023-09-07T03:49:07;21.00;99.90
35635;DHT22;21757;43.610;1.440;2023-09-07T03:51:33;21.00;99.90
35635;DHT22;21757;43.610;1.440;2023-09-07T03:53:58;21.00;99.90
35635;DHT22;21757;43.610;1.440;2023-09-07T03:56:25;20.90;99.90
35635;DHT22;21757;43.610;1.440;2023-09-07T03:58:51;21.00;99.90
35635;DHT22;21757;43.610;1.440;2023-09-07T04:01:17;20.90;99.90
35635;DHT22;21757;43.610;1.440;2023-09-07T04:03:42;20.90;99.90
35635;DHT22;21757;43.610;1.440;2023-09-07T04:06:08;20.90;99.90
35635;DHT22;21757;43.610;1.440;2023-09-07T04:08:33;21.00;99.90
35635;DHT22;21757;43.610;1.440;2023-09-07T04:11:04;20.90;99.90
35635;DHT22;21757;43.610;1.440;2023-09-07T04:13:29;20.90;99.90
35635;DHT22;21757;43.610;1.440;2023-09-07T04:15:55;20.90;99.90
35635;DHT22;21757;43.610;1.440;2023-09-07T04:18:21;20.90;99.90
35635;DHT22;21757;43.610;1.440;2023-09-07T04:20:47;20.90;99.90
35635;DHT22;21757;43.610;1.440;2023-09-07T04:23:12;20.90;99.90
35635;DHT22;21757;43.610;1.440;2023-09-07T04:25:38;20.90;99.90
35635;DHT22;21757;43.610;1.440;2023-09-07T04:28:05;20.90;99.90
35635;DHT22;21757;43.610;1.440;2023-09-07T04:30:31;20.90;99.90
35635;DHT22;21757;43.610;1.440;2023-09-07T04:32:57;20.90;99.90
35635;DHT22;21757;43.610;1.440;2023-09-07T04:35:29;20.90;99.90
35635;DHT22;21757;43.610;1.440;2023-09-07T04:37:55;20.90;99.90
35635;DHT22;21757;43.610;1.440;2023-09-07T04:40:22;20.90;99.90
35635;DHT22;21757;43.610;1.440;2023-09-07T04:42:48;20.80;99.90
35635;DHT22;21757;43.610;1.440;2023-09-07T04:45:13;20.80;99.90
35635;DHT22;21757;43.610;1.440;2023-09-07T04:47:39;20.80;99.90
35635;DHT22;21757;43.610;1.440;2023-09-07T04:50:05;20.80;99.90
35635;DHT22;21757;43.610;1.440;2023-09-07T04:52:32;20.80;99.90
35635;DHT22;21757;43.610;1.440;2023-09-07T04:54:57;20.80;99.90
35635;DHT22;21757;43.610;1.440;2023-09-07T04:57:23;20.70;99.90
35635;DHT22;21757;43.610;1.440;2023-09-07T04:59:49;20.70;99.90
35635;DHT22;21757;43.610;1.440;2023-09-07T05:02:14;20.70;99.90
35635;DHT22;21757;43.610;1.440;2023-09-07T05:04:40;20.70;99.90
35635;DHT22;21757;43.610;1.440;2023-09-07T05:07:05;20.70;99.90
35635;DHT22;21757;43.610;1.440;2023-09-07T05:09:31;20.70;99.90
35635;DHT22;21757;43.610;1.440;2023-09-07T05:11:58;20.60;99.90
35635;DHT22;21757;43.610;1.440;2023-09-07T05:14:24;20.60;99.90
35635;DHT22;21757;43.610;1.440;2023-09-07T05:16:50;20.60;99.90
35635;DHT22;21757;43.610;1.440;2023-09-07T05:19:16;20.60;99.90
35635;DHT22;21757;43.610;1.440;2023-09-07T05:21:42;20.60;99.90
35635;DHT22;21757;43.610;1.440;2023-09-07T05:24:07;20.60;99.90
35635;DHT22;21757;43.610;1.440;2023-09-07T05:26:33;20.60;99.90
35635;DHT22;21757;43.610;1.440;2023-09-07T05:28:59;20.60;99.90
35635;DHT22;21757;43.610;1.440;2023-09-07T05:31:24;20.60;99.90
35635;DHT22;21757;43.610;1.440;2023-09-07T05:33:50;20.60;99.90
35635;DHT22;21757;43.610;1.440;2023-09-07T05:36:17;20.60;99.90
35635;DHT22;21757;43.610;1.440;2023-09-07T05:38:43;20.60;99.90
35635;DHT22;21757;43.610;1.440;2023-09-07T05:41:08;20.60;99.90
35635;DHT22;21757;43.610;1.440;2023-09-07T05:43:34;20.60;99.90
35635;DHT22;21757;43.610;1.440;2023-09-07T05:46:00;20.60;99.90
35635;DHT22;21757;43.610;1.440;2023-09-07T05:48:25;20.60;99.90
35635;DHT22;21757;43.610;1.440;2023-09-07T05:50:51;20.70;99.90
35635;DHT22;21757;43.610;1.440;2023-09-07T05:53:19;20.70;99.90
35635;DHT22;21757;43.610;1.440;2023-09-07T05:55:50;20.80;99.90
35635;DHT22;21757;43.610;1.440;2023-09-07T05:58:15;20.80;99.90
35635;DHT22;21757;43.610;1.440;2023-09-07T06:00:41;20.80;99.90
35635;DHT22;21757;43.610;1.440;2023-09-07T06:03:07;20.80;99.90
35635;DHT22;21757;43.610;1.440;2023-09-07T06:05:34;20.80;99.90
35635;DHT22;21757;43.610;1.440;2023-09-07T06:08:01;20.90;99.90
35635;DHT22;21757;43.610;1.440;2023-09-07T06:10:30;20.90;99.90
35635;DHT22;21757;43.610;1.440;2023-09-07T06:12:56;20.90;99.90
35635;DHT22;21757;43.610;1.440;2023-09-07T06:15:22;21.00;99.90
35635;DHT22;21757;43.610;1.440;2023-09-07T06:17:48;21.10;99.90
35635;DHT22;21757;43.610;1.440;2023-09-07T06:20:14;21.10;99.90
35635;DHT22;21757;43.610;1.440;2023-09-07T06:22:39;21.10;99.90
35635;DHT22;21757;43.610;1.440;2023-09-07T06:25:05;21.20;99.90
35635;DHT22;21757;43.610;1.440;2023-09-07T06:27:31;21.30;99.90
35635;DHT22;21757;43.610;1.440;2023-09-07T06:29:56;21.30;99.90
35635;DHT22;21757;43.610;1.440;2023-09-07T06:32:22;21.40;99.90
35635;DHT22;21757;43.610;1.440;2023-09-07T06:34:48;21.40;99.90
35635;DHT22;21757;43.610;1.440;2023-09-07T06:37:13;21.50;99.90
35635;DHT22;21757;43.610;1.440;2023-09-07T06:39:39;21.50;99.90
35635;DHT22;21757;43.610;1.440;2023-09-07T06:42:08;21.50;99.90
35635;DHT22;21757;43.610;1.440;2023-09-07T06:45:46;21.60;99.90
35635;DHT22;21757;43.610;1.440;2023-09-07T06:48:11;21.80;99.90
35635;DHT22;21757;43.610;1.440;2023-09-07T06:50:38;22.00;99.90
35635;DHT22;21757;43.610;1.440;2023-09-07T06:53:03;22.20;99.90
35635;DHT22;21757;43.610;1.440;2023-09-07T06:55:29;22.10;99.90
35635;DHT22;21757;43.610;1.440;2023-09-07T06:57:55;22.30;99.90
35635;DHT22;21757;43.610;1.440;2023-09-07T07:00:21;22.30;99.90
35635;DHT22;21757;43.610;1.440;2023-09-07T07:02:47;22.50;99.90
35635;DHT22;21757;43.610;1.440;2023-09-07T07:05:13;22.40;99.90
35635;DHT22;21757;43.610;1.440;2023-09-07T07:07:39;22.50;99.90
35635;DHT22;21757;43.610;1.440;2023-09-07T07:10:05;22.80;99.90
35635;DHT22;21757;43.610;1.440;2023-09-07T07:12:31;22.70;99.90
35635;DHT22;21757;43.610;1.440;2023-09-07T07:15:00;22.60;99.90
35635;DHT22;21757;43.610;1.440;2023-09-07T07:17:27;22.60;99.90
35635;DHT22;21757;43.610;1.440;2023-09-07T07:19:53;22.90;99.90
35635;DHT22;21757;43.610;1.440;2023-09-07T07:22:18;22.90;99.90
35635;DHT22;21757;43.610;1.440;2023-09-07T07:24:45;22.80;99.90
35635;DHT22;21757;43.610;1.440;2023-09-07T07:27:11;22.90;99.90
35635;DHT22;21757;43.610;1.440;2023-09-07T07:29:36;22.90;99.90
35635;DHT22;21757;43.610;1.440;2023-09-07T07:32:03;22.90;99.90
35635;DHT22;21757;43.610;1.440;2023-09-07T07:34:29;23.00;99.90
35635;DHT22;21757;43.610;1.440;2023-09-07T07:36:55;23.10;99.90
35635;DHT22;21757;43.610;1.440;2023-09-07T07:39:20;23.10;99.90
35635;DHT22;21757;43.610;1.440;2023-09-07T07:41:46;23.30;99.90
35635;DHT22;21757;43.610;1.440;2023-09-07T07:44:12;23.30;99.90
35635;DHT22;21757;43.610;1.440;2023-09-07T07:46:41;23.40;99.90
35635;DHT22;21757;43.610;1.440;2023-09-07T07:49:06;23.50;99.90
35635;DHT22;21757;43.610;1.440;2023-09-07T07:51:32;23.60;99.90
35635;DHT22;21757;43.610;1.440;2023-09-07T07:53:58;23.60;99.90
35635;DHT22;21757;43.610;1.440;2023-09-07T07:56:23;23.70;99.90
35635;DHT22;21757;43.610;1.440;2023-09-07T07:58:49;23.80;99.90
35635;DHT22;21757;43.610;1.440;2023-09-07T08:01:19;23.90;99.90
35635;DHT22;21757;43.610;1.440;2023-09-07T08:03:49;24.00;99.90
35635;DHT22;21757;43.610;1.440;2023-09-07T08:06:14;24.10;99.90
35635;DHT22;21757;43.610;1.440;2023-09-07T08:08:40;24.10;99.90
35635;DHT22;21757;43.610;1.440;2023-09-07T08:11:06;24.20;99.90
35635;DHT22;21757;43.610;1.440;2023-09-07T08:13:35;24.30;99.90
35635;DHT22;21757;43.610;1.440;2023-09-07T08:16:04;24.30;99.90
35635;DHT22;21757;43.610;1.440;2023-09-07T08:18:33;24.40;99.90
35635;DHT22;21757;43.610;1.440;2023-09-07T08:20:59;24.40;99.90
35635;DHT22;21757;43.610;1.440;2023-09-07T08:23:25;24.50;99.90
35635;DHT22;21757;43.610;1.440;2023-09-07T08:25:52;24.60;99.90
35635;DHT22;21757;43.610;1.440;2023-09-07T08:28:18;24.60;99.90
35635;DHT22;21757;43.610;1.440;2023-09-07T08:30:44;24.70;99.90
35635;DHT22;21757;43.610;1.440;2023-09-07T08:33:10;24.70;99.90
35635;DHT22;21757;43.610;1.440;2023-09-07T08:35:36;24.80;99.90
35635;DHT22;21757;43.610;1.440;2023-09-07T08:38:12;24.90;99.90
35635;DHT22;21757;43.610;1.440;2023-09-07T08:40:39;24.90;99.90
35635;DHT22;21757;43.610;1.440;2023-09-07T08:43:09;25.00;99.90
35635;DHT22;21757;43.610;1.440;2023-09-07T08:45:41;25.10;99.90
35635;DHT22;21757;43.610;1.440;2023-09-07T08:48:11;25.10;99.90
35635;DHT22;21757;43.610;1.440;2023-09-07T08:50:39;25.20;99.90
35635;DHT22;21757;43.610;1.440;2023-09-07T08:53:05;25.20;99.90
35635;DHT22;21757;43.610;1.440;2023-09-07T08:55:33;25.30;99.90
35635;DHT22;21757;43.610;1.440;2023-09-07T08:57:59;25.40;99.90
35635;DHT22;21757;43.610;1.440;2023-09-07T09:00:25;25.40;99.90
35635;DHT22;21757;43.610;1.440;2023-09-07T09:02:51;25.50;99.90
35635;DHT22;21757;43.610;1.440;2023-09-07T09:05:19;25.60;99.90
35635;DHT22;21757;43.610;1.440;2023-09-07T09:07:45;25.60;99.90
35635;DHT22;21757;43.610;1.440;2023-09-07T09:10:11;25.70;99.90
35635;DHT22;21757;43.610;1.440;2023-09-07T09:12:45;25.70;99.90
35635;DHT22;21757;43.610;1.440;2023-09-07T09:15:11;25.90;99.90
35635;DHT22;21757;43.610;1.440;2023-09-07T09:17:37;25.90;99.90
35635;DHT22;21757;43.610;1.440;2023-09-07T09:20:03;25.90;99.90
35635;DHT22;21757;43.610;1.440;2023-09-07T09:22:31;26.00;99.90
35635;DHT22;21757;43.610;1.440;2023-09-07T09:25:02;26.10;99.90
35635;DHT22;21757;43.610;1.440;2023-09-07T09:27:27;26.20;99.90
35635;DHT22;21757;43.610;1.440;2023-09-07T09:29:53;26.30;99.90
35635;DHT22;21757;43.610;1.440;2023-09-07T09:32:19;26.30;99.90
35635;DHT22;21757;43.610;1.440;2023-09-07T09:34:45;26.30;99.90
35635;DHT22;21757;43.610;1.440;2023-09-07T09:37:14;26.40;99.90
35635;DHT22;21757;43.610;1.440;2023-09-07T09:39:42;26.50;99.90
35635;DHT22;21757;43.610;1.440;2023-09-07T09:42:09;26.50;99.90
35635;DHT22;21757;43.610;1.440;2023-09-07T09:44:34;26.50;99.90
35635;DHT22;21757;43.610;1.440;2023-09-07T09:47:02;26.60;99.90
35635;DHT22;21757;43.610;1.440;2023-09-07T09:49:29;26.60;99.90
35635;DHT22;21757;43.610;1.440;2023-09-07T09:51:56;26.70;99.90
35635;DHT22;21757;43.610;1.440;2023-09-07T09:54:24;26.80;99.90
35635;DHT22;21757;43.610;1.440;2023-09-07T09:56:51;26.80;99.90
35635;DHT22;21757;43.610;1.440;2023-09-07T09:59:17;26.90;99.90
35635;DHT22;21757;43.610;1.440;2023-09-07T10:01:45;26.90;99.90
35635;DHT22;21757;43.610;1.440;2023-09-07T10:04:13;27.00;99.90
35635;DHT22;21757;43.610;1.440;2023-09-07T10:06:58;27.20;99.90
35635;DHT22;21757;43.610;1.440;2023-09-07T10:09:29;27.20;99.90
35635;DHT22;21757;43.610;1.440;2023-09-07T10:11:58;27.30;99.90
35635;DHT22;21757;43.610;1.440;2023-09-07T10:14:25;27.30;99.90
35635;DHT22;21757;43.610;1.440;2023-09-07T10:16:53;27.30;99.90
35635;DHT22;21757;43.610;1.440;2023-09-07T10:19:25;27.30;99.90
35635;DHT22;21757;43.610;1.440;2023-09-07T10:21:54;27.30;99.90
35635;DHT22;21757;43.610;1.440;2023-09-07T10:24:24;27.30;99.90
35635;DHT22;21757;43.610;1.440;2023-09-07T10:27:07;27.40;99.90
35635;DHT22;21757;43.610;1.440;2023-09-07T10:29:50;27.50;99.90
35635;DHT22;21757;43.610;1.440;2023-09-07T10:32:19;27.60;99.90
35635;DHT22;21757;43.610;1.440;2023-09-07T10:34:45;27.60;99.90
35635;DHT22;21757;43.610;1.440;2023-09-07T10:37:14;27.80;99.90
35635;DHT22;21757;43.610;1.440;2023-09-07T10:39:41;27.80;99.90
35635;DHT22;21757;43.610;1.440;2023-09-07T10:42:23;27.80;99.90
35635;DHT22;21757;43.610;1.440;2023-09-07T10:44:49;27.80;99.90
